sensor_id;sensor_type;location;lat;lon;timestamp;temperature;humidity
65985;HTU21D;52748;51.112;5.880;2023-05-20T00:01:27;22.08;48.44
65985;HTU21D;52748;51.112;5.880;2023-05-20T00:03:52;22.07;48.50
65985;HTU21D;52748;51.112;5.880;2023-05-20T00:06:18;22.07;48.49
65985;HTU21D;52748;51.112;5.880;2023-05-20T00:08:44;22.05;48.50
65985;HTU21D;52748;51.112;5.880;2023-05-20T00:11:10;22.03;48.54
65985;HTU21D;52748;51.112;5.880;2023-05-20T00:13:36;22.05;48.58
65985;HTU21D;52748;51.112;5.880;2023-05-20T00:16:02;22.05;48.50
65985;HTU21D;52748;51.112;5.880;2023-05-20T00:18:27;22.07;48.42
65985;HTU21D;52748;51.112;5.880;2023-05-20T00:20:53;22.07;48.38
65985;HTU21D;52748;51.112;5.880;2023-05-20T00:23:19;22.09;48.34
65985;HTU21D;52748;51.112;5.880;2023-05-20T00:25:45;22.06;48.38
65985;HTU21D;52748;51.112;5.880;2023-05-20T00:28:11;22.04;48.44
65985;HTU21D;52748;51.112;5.880;2023-05-20T00:30:40;22.02;48.49
65985;HTU21D;52748;51.112;5.880;2023-05-20T00:33:06;22.01;48.53
65985;HTU21D;52748;51.112;5.880;2023-05-20T00:35:32;22.02;48.53
65985;HTU21D;52748;51.112;5.880;2023-05-20T00:37:58;22.02;48.48
65985;HTU21D;52748;51.112;5.880;2023-05-20T00:40:24;21.98;48.50
65985;HTU21D;52748;51.112;5.880;2023-05-20T00:42:50;21.98;48.54
65985;HTU21D;52748;51.112;5.880;2023-05-20T00:45:16;21.97;48.55
65985;HTU21D;52748;51.112;5.880;2023-05-20T00:47:43;21.96;48.60
65985;HTU21D;52748;51.112;5.880;2023-05-20T00:50:09;21.94;48.66
65985;HTU21D;52748;51.112;5.880;2023-05-20T00:52:36;21.96;48.66
65985;HTU21D;52748;51.112;5.880;2023-05-20T00:55:02;21.98;48.58
65985;HTU21D;52748;51.112;5.880;2023-05-20T00:57:29;21.99;48.52
65985;HTU21D;52748;51.112;5.880;2023-05-20T00:59:55;22.01;48.45
65985;HTU21D;52748;51.112;5.880;2023-05-20T01:02:22;21.98;48.50
65985;HTU21D;52748;51.112;5.880;2023-05-20T01:04:49;21.97;48.55
65985;HTU21D;52748;51.112;5.880;2023-05-20T01:07:16;21.96;48.59
65985;HTU21D;52748;51.112;5.880;2023-05-20T01:09:43;21.95;48.66
65985;HTU21D;52748;51.112;5.880;2023-05-20T01:12:53;21.93;48.65
65985;HTU21D;52748;51.112;5.880;2023-05-20T01:15:15;21.92;48.66
65985;HTU21D;52748;51.112;5.880;2023-05-20T01:17:47;21.92;48.66
65985;HTU21D;52748;51.112;5.880;2023-05-20T01:20:16;21.90;48.64
65985;HTU21D;52748;51.112;5.880;2023-05-20T01:22:53;21.91;48.66
65985;HTU21D;52748;51.112;5.880;2023-05-20T01:25:19;21.90;48.66
65985;HTU21D;52748;51.112;5.880;2023-05-20T01:27:46;21.88;48.67
65985;HTU21D;52748;51.112;5.880;2023-05-20T01:30:13;21.90;48.66
65985;HTU21D;52748;51.112;5.880;2023-05-20T01:32:47;21.89;48.66
65985;HTU21D;52748;51.112;5.880;2023-05-20T01:35:16;21.88;48.68
65985;HTU21D;52748;51.112;5.880;2023-05-20T01:37:43;21.89;48.63
65985;HTU21D;52748;51.112;5.880;2023-05-20T01:40:14;21.92;48.57
65985;HTU21D;52748;51.112;5.880;2023-05-20T01:42:42;21.92;48.47
65985;HTU21D;52748;51.112;5.880;2023-05-20T01:45:09;21.94;48.41
65985;HTU21D;52748;51.112;5.880;2023-05-20T01:47:36;21.94;48.41
65985;HTU21D;52748;51.112;5.880;2023-05-20T01:50:02;21.93;48.39
65985;HTU21D;52748;51.112;5.880;2023-05-20T01:52:28;21.92;48.50
65985;HTU21D;52748;51.112;5.880;2023-05-20T01:54:55;21.94;48.56
65985;HTU21D;52748;51.112;5.880;2023-05-20T01:57:22;21.95;48.63
65985;HTU21D;52748;51.112;5.880;2023-05-20T01:59:49;21.93;48.59
65985;HTU21D;52748;51.112;5.880;2023-05-20T02:02:15;21.90;48.63
65985;HTU21D;52748;51.112;5.880;2023-05-20T02:04:44;21.89;48.73
65985;HTU21D;52748;51.112;5.880;2023-05-20T02:07:14;21.88;48.73
65985;HTU21D;52748;51.112;5.880;2023-05-20T02:09:40;21.87;48.73
65985;HTU21D;52748;51.112;5.880;2023-05-20T02:12:07;21.85;48.73
65985;HTU21D;52748;51.112;5.880;2023-05-20T02:14:34;21.85;48.76
65985;HTU21D;52748;51.112;5.880;2023-05-20T02:17:00;21.84;48.73
65985;HTU21D;52748;51.112;5.880;2023-05-20T02:19:26;21.84;48.73
65985;HTU21D;52748;51.112;5.880;2023-05-20T02:21:52;21.85;48.67
65985;HTU21D;52748;51.112;5.880;2023-05-20T02:24:18;21.87;48.61
65985;HTU21D;52748;51.112;5.880;2023-05-20T02:26:46;21.84;48.65
65985;HTU21D;52748;51.112;5.880;2023-05-20T02:29:16;21.85;48.65
65985;HTU21D;52748;51.112;5.880;2023-05-20T02:31:42;21.84;48.68
65985;HTU21D;52748;51.112;5.880;2023-05-20T02:34:08;21.87;48.62
65985;HTU21D;52748;51.112;5.880;2023-05-20T02:36:33;21.85;48.58
65985;HTU21D;52748;51.112;5.880;2023-05-20T02:39:00;21.87;48.54
65985;HTU21D;52748;51.112;5.880;2023-05-20T02:41:26;21.84;48.60
65985;HTU21D;52748;51.112;5.880;2023-05-20T02:43:52;21.83;48.66
65985;HTU21D;52748;51.112;5.880;2023-05-20T02:46:19;21.81;48.66
65985;HTU21D;52748;51.112;5.880;2023-05-20T02:48:44;21.82;48.61
65985;HTU21D;52748;51.112;5.880;2023-05-20T02:51:10;21.80;48.62
65985;HTU21D;52748;51.112;5.880;2023-05-20T02:53:36;21.80;48.68
65985;HTU21D;52748;51.112;5.880;2023-05-20T02:56:03;21.79;48.67
65985;HTU21D;52748;51.112;5.880;2023-05-20T02:58:29;21.79;48.67
65985;HTU21D;52748;51.112;5.880;2023-05-20T03:00:55;21.78;48.66
65985;HTU21D;52748;51.112;5.880;2023-05-20T03:03:25;21.80;48.66
65985;HTU21D;52748;51.112;5.880;2023-05-20T03:05:54;21.78;48.68
65985;HTU21D;52748;51.112;5.880;2023-05-20T03:08:21;21.79;48.77
65985;HTU21D;52748;51.112;5.880;2023-05-20T03:10:47;21.78;48.83
65985;HTU21D;52748;51.112;5.880;2023-05-20T03:13:13;21.81;48.73
65985;HTU21D;52748;51.112;5.880;2023-05-20T03:15:40;21.82;48.64
65985;HTU21D;52748;51.112;5.880;2023-05-20T03:18:07;21.84;48.55
65985;HTU21D;52748;51.112;5.880;2023-05-20T03:20:33;21.83;48.48
65985;HTU21D;52748;51.112;5.880;2023-05-20T03:23:02;21.82;48.50
65985;HTU21D;52748;51.112;5.880;2023-05-20T03:25:27;21.80;48.57
65985;HTU21D;52748;51.112;5.880;2023-05-20T03:27:53;21.79;48.60
65985;HTU21D;52748;51.112;5.880;2023-05-20T03:30:20;21.79;48.62
65985;HTU21D;52748;51.112;5.880;2023-05-20T03:32:47;21.78;48.60
65985;HTU21D;52748;51.112;5.880;2023-05-20T03:35:13;21.78;48.71
65985;HTU21D;52748;51.112;5.880;2023-05-20T03:37:38;21.77;48.76
65985;HTU21D;52748;51.112;5.880;2023-05-20T03:40:05;21.76;48.79
65985;HTU21D;52748;51.112;5.880;2023-05-20T03:42:33;21.77;48.87
65985;HTU21D;52748;51.112;5.880;2023-05-20T03:44:59;21.79;48.81
65985;HTU21D;52748;51.112;5.880;2023-05-20T03:47:27;21.81;48.70
65985;HTU21D;52748;51.112;5.880;2023-05-20T03:49:53;21.83;48.63
65985;HTU21D;52748;51.112;5.880;2023-05-20T03:52:19;21.82;48.61
65985;HTU21D;52748;51.112;5.880;2023-05-20T03:54:45;21.79;48.69
65985;HTU21D;52748;51.112;5.880;2023-05-20T03:57:11;21.77;48.76
65985;HTU21D;52748;51.112;5.880;2023-05-20T03:59:37;21.76;48.80
65985;HTU21D;52748;51.112;5.880;2023-05-20T04:02:04;21.75;48.85
65985;HTU21D;52748;51.112;5.880;2023-05-20T04:04:30;21.75;48.88
65985;HTU21D;52748;51.112;5.880;2023-05-20T04:06:57;21.75;48.86
65985;HTU21D;52748;51.112;5.880;2023-05-20T04:09:28;21.76;48.87
65985;HTU21D;52748;51.112;5.880;2023-05-20T04:11:53;21.74;48.88
65985;HTU21D;52748;51.112;5.880;2023-05-20T04:14:19;21.73;48.92
65985;HTU21D;52748;51.112;5.880;2023-05-20T04:16:45;21.73;49.02
65985;HTU21D;52748;51.112;5.880;2023-05-20T04:19:11;21.72;49.14
65985;HTU21D;52748;51.112;5.880;2023-05-20T04:21:37;21.74;49.09
65985;HTU21D;52748;51.112;5.880;2023-05-20T04:24:04;21.75;48.98
65985;HTU21D;52748;51.112;5.880;2023-05-20T04:26:30;21.77;48.89
65985;HTU21D;52748;51.112;5.880;2023-05-20T04:28:56;21.77;48.95
65985;HTU21D;52748;51.112;5.880;2023-05-20T04:31:24;21.77;48.92
65985;HTU21D;52748;51.112;5.880;2023-05-20T04:33:53;21.77;48.91
65985;HTU21D;52748;51.112;5.880;2023-05-20T04:36:19;21.77;48.86
65985;HTU21D;52748;51.112;5.880;2023-05-20T04:38:45;21.79;48.84
65985;HTU21D;52748;51.112;5.880;2023-05-20T04:41:13;21.78;48.79
65985;HTU21D;52748;51.112;5.880;2023-05-20T04:43:40;21.75;48.92
65985;HTU21D;52748;51.112;5.880;2023-05-20T04:46:06;21.73;48.95
65985;HTU21D;52748;51.112;5.880;2023-05-20T04:48:34;21.73;49.02
65985;HTU21D;52748;51.112;5.880;2023-05-20T04:50:59;21.75;48.94
65985;HTU21D;52748;51.112;5.880;2023-05-20T04:53:25;21.74;48.91
65985;HTU21D;52748;51.112;5.880;2023-05-20T04:55:55;21.73;49.02
65985;HTU21D;52748;51.112;5.880;2023-05-20T04:58:23;21.70;49.08
65985;HTU21D;52748;51.112;5.880;2023-05-20T05:00:51;21.72;49.06
65985;HTU21D;52748;51.112;5.880;2023-05-20T05:03:17;21.69;49.15
65985;HTU21D;52748;51.112;5.880;2023-05-20T05:05:43;21.68;49.16
65985;HTU21D;52748;51.112;5.880;2023-05-20T05:08:09;21.66;49.20
65985;HTU21D;52748;51.112;5.880;2023-05-20T05:10:44;21.66;49.25
65985;HTU21D;52748;51.112;5.880;2023-05-20T05:13:10;21.67;49.27
65985;HTU21D;52748;51.112;5.880;2023-05-20T05:15:36;21.66;49.30
65985;HTU21D;52748;51.112;5.880;2023-05-20T05:18:02;21.65;49.34
65985;HTU21D;52748;51.112;5.880;2023-05-20T05:20:29;21.65;49.40
65985;HTU21D;52748;51.112;5.880;2023-05-20T05:22:55;21.67;49.44
65985;HTU21D;52748;51.112;5.880;2023-05-20T05:25:21;21.67;49.45
65985;HTU21D;52748;51.112;5.880;2023-05-20T05:27:46;21.66;49.56
65985;HTU21D;52748;51.112;5.880;2023-05-20T05:30:15;21.68;49.50
65985;HTU21D;52748;51.112;5.880;2023-05-20T05:32:42;21.67;49.51
65985;HTU21D;52748;51.112;5.880;2023-05-20T05:35:08;21.67;49.60
65985;HTU21D;52748;51.112;5.880;2023-05-20T05:37:34;21.65;49.65
65985;HTU21D;52748;51.112;5.880;2023-05-20T05:40:00;21.66;49.69
65985;HTU21D;52748;51.112;5.880;2023-05-20T05:42:26;21.66;49.71
65985;HTU21D;52748;51.112;5.880;2023-05-20T05:44:53;21.67;49.74
65985;HTU21D;52748;51.112;5.880;2023-05-20T05:47:20;21.66;49.77
65985;HTU21D;52748;51.112;5.880;2023-05-20T05:49:46;21.67;49.78
65985;HTU21D;52748;51.112;5.880;2023-05-20T05:52:12;21.65;49.85
65985;HTU21D;52748;51.112;5.880;2023-05-20T05:54:39;21.64;49.92
65985;HTU21D;52748;51.112;5.880;2023-05-20T05:57:05;21.64;50.00
65985;HTU21D;52748;51.112;5.880;2023-05-20T05:59:33;21.65;50.03
65985;HTU21D;52748;51.112;5.880;2023-05-20T06:01:59;21.67;50.02
65985;HTU21D;52748;51.112;5.880;2023-05-20T06:04:25;21.69;49.97
65985;HTU21D;52748;51.112;5.880;2023-05-20T06:06:53;21.72;49.98
65985;HTU21D;52748;51.112;5.880;2023-05-20T06:09:19;21.72;49.98
65985;HTU21D;52748;51.112;5.880;2023-05-20T06:11:45;21.70;50.05
65985;HTU21D;52748;51.112;5.880;2023-05-20T06:14:11;21.69;50.15
65985;HTU21D;52748;51.112;5.880;2023-05-20T06:16:36;21.70;50.23
65985;HTU21D;52748;51.112;5.880;2023-05-20T06:19:02;21.68;50.28
65985;HTU21D;52748;51.112;5.880;2023-05-20T06:21:31;21.67;50.42
65985;HTU21D;52748;51.112;5.880;2023-05-20T06:23:57;21.69;50.49
65985;HTU21D;52748;51.112;5.880;2023-05-20T06:26:23;21.69;50.47
65985;HTU21D;52748;51.112;5.880;2023-05-20T06:28:49;21.69;50.55
65985;HTU21D;52748;51.112;5.880;2023-05-20T06:31:15;21.67;50.67
65985;HTU21D;52748;51.112;5.880;2023-05-20T06:33:41;21.67;50.75
65985;HTU21D;52748;51.112;5.880;2023-05-20T06:36:11;21.68;49.65
65985;HTU21D;52748;51.112;5.880;2023-05-20T06:38:36;21.66;48.76
65985;HTU21D;52748;51.112;5.880;2023-05-20T06:41:03;21.66;48.20
65985;HTU21D;52748;51.112;5.880;2023-05-20T06:43:31;21.67;47.56
65985;HTU21D;52748;51.112;5.880;2023-05-20T06:46:08;21.65;47.09
65985;HTU21D;52748;51.112;5.880;2023-05-20T06:48:48;21.65;46.83
65985;HTU21D;52748;51.112;5.880;2023-05-20T06:51:15;21.68;46.75
65985;HTU21D;52748;51.112;5.880;2023-05-20T06:53:44;21.67;46.31
65985;HTU21D;52748;51.112;5.880;2023-05-20T06:56:11;21.70;45.99
65985;HTU21D;52748;51.112;5.880;2023-05-20T06:58:36;21.69;46.17
65985;HTU21D;52748;51.112;5.880;2023-05-20T07:01:03;21.72;45.85
65985;HTU21D;52748;51.112;5.880;2023-05-20T07:03:29;21.73;45.80
65985;HTU21D;52748;51.112;5.880;2023-05-20T07:05:58;21.75;45.68
65985;HTU21D;52748;51.112;5.880;2023-05-20T07:08:24;21.76;45.57
65985;HTU21D;52748;51.112;5.880;2023-05-20T07:10:50;21.79;45.40
65985;HTU21D;52748;51.112;5.880;2023-05-20T07:13:19;21.79;45.25
65985;HTU21D;52748;51.112;5.880;2023-05-20T07:15:49;21.80;45.03
65985;HTU21D;52748;51.112;5.880;2023-05-20T07:18:15;21.75;45.13
65985;HTU21D;52748;51.112;5.880;2023-05-20T07:20:44;21.76;45.35
65985;HTU21D;52748;51.112;5.880;2023-05-20T07:23:20;21.77;45.50
65985;HTU21D;52748;51.112;5.880;2023-05-20T07:25:52;21.82;45.41
65985;HTU21D;52748;51.112;5.880;2023-05-20T07:28:20;21.84;45.36
65985;HTU21D;52748;51.112;5.880;2023-05-20T07:30:47;21.90;45.25
65985;HTU21D;52748;51.112;5.880;2023-05-20T07:33:27;21.94;45.30
65985;HTU21D;52748;51.112;5.880;2023-05-20T07:35:54;21.99;45.35
65985;HTU21D;52748;51.112;5.880;2023-05-20T07:38:21;21.97;45.78
65985;HTU21D;52748;51.112;5.880;2023-05-20T07:40:53;21.99;46.13
65985;HTU21D;52748;51.112;5.880;2023-05-20T07:43:19;22.04;45.97
65985;HTU21D;52748;51.112;5.880;2023-05-20T07:45:45;22.05;45.59
65985;HTU21D;52748;51.112;5.880;2023-05-20T07:48:11;22.11;45.12
65985;HTU21D;52748;51.112;5.880;2023-05-20T07:50:38;22.13;44.88
65985;HTU21D;52748;51.112;5.880;2023-05-20T07:53:05;22.16;45.04
65985;HTU21D;52748;51.112;5.880;2023-05-20T07:55:33;22.19;45.05
65985;HTU21D;52748;51.112;5.880;2023-05-20T07:58:00;22.22;44.74
65985;HTU21D;52748;51.112;5.880;2023-05-20T08:00:26;22.24;44.29
65985;HTU21D;52748;51.112;5.880;2023-05-20T08:02:52;22.24;43.90
65985;HTU21D;52748;51.112;5.880;2023-05-20T08:05:25;22.25;43.87
65985;HTU21D;52748;51.112;5.880;2023-05-20T08:07:51;22.26;44.00
65985;HTU21D;52748;51.112;5.880;2023-05-20T08:10:20;22.27;43.90
65985;HTU21D;52748;51.112;5.880;2023-05-20T08:12:46;22.26;44.05
65985;HTU21D;52748;51.112;5.880;2023-05-20T08:15:12;22.28;44.19
65985;HTU21D;52748;51.112;5.880;2023-05-20T08:17:39;22.28;44.00
65985;HTU21D;52748;51.112;5.880;2023-05-20T08:20:06;22.32;44.19
65985;HTU21D;52748;51.112;5.880;2023-05-20T08:22:34;22.34;44.13
65985;HTU21D;52748;51.112;5.880;2023-05-20T08:25:02;22.35;44.03
65985;HTU21D;52748;51.112;5.880;2023-05-20T08:27:27;22.37;43.83
65985;HTU21D;52748;51.112;5.880;2023-05-20T08:29:53;22.39;43.86
65985;HTU21D;52748;51.112;5.880;2023-05-20T08:32:19;22.38;44.45
65985;HTU21D;52748;51.112;5.880;2023-05-20T08:34:45;22.40;45.31
65985;HTU21D;52748;51.112;5.880;2023-05-20T08:37:13;22.41;45.32
65985;HTU21D;52748;51.112;5.880;2023-05-20T08:39:39;22.40;45.13
65985;HTU21D;52748;51.112;5.880;2023-05-20T08:42:07;22.38;44.84
65985;HTU21D;52748;51.112;5.880;2023-05-20T08:44:34;22.39;44.93
65985;HTU21D;52748;51.112;5.880;2023-05-20T08:47:02;22.41;45.12
65985;HTU21D;52748;51.112;5.880;2023-05-20T08:49:30;22.43;45.33
65985;HTU21D;52748;51.112;5.880;2023-05-20T08:51:59;22.46;45.55
65985;HTU21D;52748;51.112;5.880;2023-05-20T08:54:38;22.48;45.76
65985;HTU21D;52748;51.112;5.880;2023-05-20T08:57:06;22.52;45.89
65985;HTU21D;52748;51.112;5.880;2023-05-20T08:59:33;22.56;46.20
65985;HTU21D;52748;51.112;5.880;2023-05-20T09:01:59;22.60;46.44
65985;HTU21D;52748;51.112;5.880;2023-05-20T09:04:25;22.66;46.72
65985;HTU21D;52748;51.112;5.880;2023-05-20T09:06:51;22.68;46.95
65985;HTU21D;52748;51.112;5.880;2023-05-20T09:09:17;22.71;47.27
65985;HTU21D;52748;51.112;5.880;2023-05-20T09:11:43;22.72;47.53
65985;HTU21D;52748;51.112;5.880;2023-05-20T09:14:09;22.78;47.75
65985;HTU21D;52748;51.112;5.880;2023-05-20T09:16:34;22.80;47.97
65985;HTU21D;52748;51.112;5.880;2023-05-20T09:19:00;22.84;48.12
65985;HTU21D;52748;51.112;5.880;2023-05-20T09:21:27;22.87;48.32
65985;HTU21D;52748;51.112;5.880;2023-05-20T09:23:53;22.91;48.50
65985;HTU21D;52748;51.112;5.880;2023-05-20T09:26:22;22.94;48.64
65985;HTU21D;52748;51.112;5.880;2023-05-20T09:28:49;22.97;48.79
65985;HTU21D;52748;51.112;5.880;2023-05-20T09:31:16;23.02;48.87
65985;HTU21D;52748;51.112;5.880;2023-05-20T09:33:42;23.06;48.87
65985;HTU21D;52748;51.112;5.880;2023-05-20T09:36:09;23.12;48.92
65985;HTU21D;52748;51.112;5.880;2023-05-20T09:38:37;23.13;49.08
65985;HTU21D;52748;51.112;5.880;2023-05-20T09:41:10;23.17;49.18
65985;HTU21D;52748;51.112;5.880;2023-05-20T09:43:38;23.21;49.25
65985;HTU21D;52748;51.112;5.880;2023-05-20T09:46:06;23.23;49.36
65985;HTU21D;52748;51.112;5.880;2023-05-20T09:48:35;23.26;49.41
65985;HTU21D;52748;51.112;5.880;2023-05-20T09:51:05;23.29;49.42
65985;HTU21D;52748;51.112;5.880;2023-05-20T09:53:31;23.31;49.42
65985;HTU21D;52748;51.112;5.880;2023-05-20T09:55:58;23.34;49.50
65985;HTU21D;52748;51.112;5.880;2023-05-20T09:58:24;23.37;49.53
65985;HTU21D;52748;51.112;5.880;2023-05-20T10:00:50;23.40;49.53
65985;HTU21D;52748;51.112;5.880;2023-05-20T10:03:17;23.45;49.46
65985;HTU21D;52748;51.112;5.880;2023-05-20T10:11:43;23.47;49.48
65985;HTU21D;52748;51.112;5.880;2023-05-20T10:17:09;23.52;49.44
65985;HTU21D;52748;51.112;5.880;2023-05-20T10:19:37;23.53;49.44
65985;HTU21D;52748;51.112;5.880;2023-05-20T10:22:08;23.56;49.40
65985;HTU21D;52748;51.112;5.880;2023-05-20T10:27:07;23.58;49.29
65985;HTU21D;52748;51.112;5.880;2023-05-20T10:29:54;23.58;49.20
65985;HTU21D;52748;51.112;5.880;2023-05-20T10:32:30;23.56;49.17
65985;HTU21D;52748;51.112;5.880;2023-05-20T10:35:01;23.55;49.20
65985;HTU21D;52748;51.112;5.880;2023-05-20T10:37:41;23.52;49.19
65985;HTU21D;52748;51.112;5.880;2023-05-20T10:40:13;23.49;49.22
65985;HTU21D;52748;51.112;5.880;2023-05-20T10:42:40;23.44;49.26
65985;HTU21D;52748;51.112;5.880;2023-05-20T10:45:06;23.40;49.31
65985;HTU21D;52748;51.112;5.880;2023-05-20T10:47:33;23.40;49.34
65985;HTU21D;52748;51.112;5.880;2023-05-20T10:49:59;23.38;49.29
65985;HTU21D;52748;51.112;5.880;2023-05-20T10:52:26;23.36;49.35
65985;HTU21D;52748;51.112;5.880;2023-05-20T10:54:55;23.36;49.35
65985;HTU21D;52748;51.112;5.880;2023-05-20T10:57:22;23.34;49.35
65985;HTU21D;52748;51.112;5.880;2023-05-20T10:59:49;23.31;49.40
65985;HTU21D;52748;51.112;5.880;2023-05-20T11:02:16;23.30;49.40
65985;HTU21D;52748;51.112;5.880;2023-05-20T11:04:42;23.27;49.47
65985;HTU21D;52748;51.112;5.880;2023-05-20T11:07:09;23.24;49.60
65985;HTU21D;52748;51.112;5.880;2023-05-20T11:09:35;23.21;49.71
65985;HTU21D;52748;51.112;5.880;2023-05-20T11:12:01;23.17;49.81
65985;HTU21D;52748;51.112;5.880;2023-05-20T11:14:30;23.16;49.87
65985;HTU21D;52748;51.112;5.880;2023-05-20T11:16:57;23.13;49.89
65985;HTU21D;52748;51.112;5.880;2023-05-20T11:19:24;23.12;49.98
65985;HTU21D;52748;51.112;5.880;2023-05-20T11:21:51;23.10;50.05
65985;HTU21D;52748;51.112;5.880;2023-05-20T11:24:27;23.10;50.09
65985;HTU21D;52748;51.112;5.880;2023-05-20T11:26:54;23.05;50.14
65985;HTU21D;52748;51.112;5.880;2023-05-20T11:29:20;23.06;50.18
65985;HTU21D;52748;51.112;5.880;2023-05-20T11:31:48;23.05;50.23
65985;HTU21D;52748;51.112;5.880;2023-05-20T11:34:20;23.02;50.27
65985;HTU21D;52748;51.112;5.880;2023-05-20T11:36:48;23.05;50.20
65985;HTU21D;52748;51.112;5.880;2023-05-20T11:39:16;23.06;50.15
65985;HTU21D;52748;51.112;5.880;2023-05-20T11:41:42;23.02;50.24
65985;HTU21D;52748;51.112;5.880;2023-05-20T11:44:10;23.01;50.32
65985;HTU21D;52748;51.112;5.880;2023-05-20T11:46:46;23.02;50.32
65985;HTU21D;52748;51.112;5.880;2023-05-20T11:49:13;22.98;50.43
65985;HTU21D;52748;51.112;5.880;2023-05-20T11:51:39;22.98;50.53
65985;HTU21D;52748;51.112;5.880;2023-05-20T11:54:06;22.97;50.70
65985;HTU21D;52748;51.112;5.880;2023-05-20T11:56:34;22.95;50.82
65985;HTU21D;52748;51.112;5.880;2023-05-20T11:59:08;22.97;50.97
65985;HTU21D;52748;51.112;5.880;2023-05-20T12:01:36;22.96;51.08
65985;HTU21D;52748;51.112;5.880;2023-05-20T12:04:08;22.97;51.14
65985;HTU21D;52748;51.112;5.880;2023-05-20T12:06:35;22.97;51.21
65985;HTU21D;52748;51.112;5.880;2023-05-20T12:09:06;22.98;51.25
65985;HTU21D;52748;51.112;5.880;2023-05-20T12:11:34;23.00;51.28
65985;HTU21D;52748;51.112;5.880;2023-05-20T12:14:03;23.00;51.29
65985;HTU21D;52748;51.112;5.880;2023-05-20T12:16:31;23.03;51.23
65985;HTU21D;52748;51.112;5.880;2023-05-20T12:18:58;23.06;51.17
65985;HTU21D;52748;51.112;5.880;2023-05-20T12:21:23;23.09;51.13
65985;HTU21D;52748;51.112;5.880;2023-05-20T12:23:49;23.09;51.07
65985;HTU21D;52748;51.112;5.880;2023-05-20T12:26:26;23.09;51.11
65985;HTU21D;52748;51.112;5.880;2023-05-20T12:28:52;23.09;51.16
65985;HTU21D;52748;51.112;5.880;2023-05-20T12:31:18;23.10;51.18
65985;HTU21D;52748;51.112;5.880;2023-05-20T12:33:47;23.10;51.27
65985;HTU21D;52748;51.112;5.880;2023-05-20T12:36:16;23.11;51.33
65985;HTU21D;52748;51.112;5.880;2023-05-20T12:38:42;23.10;51.50
65985;HTU21D;52748;51.112;5.880;2023-05-20T12:41:07;23.12;51.66
65985;HTU21D;52748;51.112;5.880;2023-05-20T12:43:34;23.14;51.79
65985;HTU21D;52748;51.112;5.880;2023-05-20T12:46:01;23.16;51.83
65985;HTU21D;52748;51.112;5.880;2023-05-20T12:48:28;23.16;51.82
65985;HTU21D;52748;51.112;5.880;2023-05-20T12:50:53;23.20;51.65
65985;HTU21D;52748;51.112;5.880;2023-05-20T12:53:19;23.22;51.56
65985;HTU21D;52748;51.112;5.880;2023-05-20T12:55:45;23.24;51.46
65985;HTU21D;52748;51.112;5.880;2023-05-20T12:58:11;23.26;51.42
65985;HTU21D;52748;51.112;5.880;2023-05-20T13:00:37;23.28;51.34
65985;HTU21D;52748;51.112;5.880;2023-05-20T13:03:03;23.29;51.38
65985;HTU21D;52748;51.112;5.880;2023-05-20T13:05:28;23.34;51.32
65985;HTU21D;52748;51.112;5.880;2023-05-20T13:07:54;23.36;51.16
65985;HTU21D;52748;51.112;5.880;2023-05-20T13:10:20;23.38;51.07
65985;HTU21D;52748;51.112;5.880;2023-05-20T13:12:46;23.38;51.06
65985;HTU21D;52748;51.112;5.880;2023-05-20T13:15:14;23.39;51.01
65985;HTU21D;52748;51.112;5.880;2023-05-20T13:17:41;23.40;51.04
65985;HTU21D;52748;51.112;5.880;2023-05-20T13:20:07;23.39;51.07
65985;HTU21D;52748;51.112;5.880;2023-05-20T13:22:33;23.40;51.04
65985;HTU21D;52748;51.112;5.880;2023-05-20T13:24:59;23.40;51.05
65985;HTU21D;52748;51.112;5.880;2023-05-20T13:27:25;23.40;51.02
65985;HTU21D;52748;51.112;5.880;2023-05-20T13:29:51;23.40;51.03
65985;HTU21D;52748;51.112;5.880;2023-05-20T13:32:17;23.39;51.04
65985;HTU21D;52748;51.112;5.880;2023-05-20T13:34:43;23.40;50.95
65985;HTU21D;52748;51.112;5.880;2023-05-20T13:37:09;23.43;50.83
65985;HTU21D;52748;51.112;5.880;2023-05-20T13:39:35;23.41;50.78
65985;HTU21D;52748;51.112;5.880;2023-05-20T13:42:01;23.39;50.83
65985;HTU21D;52748;51.112;5.880;2023-05-20T13:44:27;23.39;50.85
65985;HTU21D;52748;51.112;5.880;2023-05-20T13:46:53;23.40;50.82
65985;HTU21D;52748;51.112;5.880;2023-05-20T13:49:20;23.36;50.87
65985;HTU21D;52748;51.112;5.880;2023-05-20T13:51:45;23.34;50.90
65985;HTU21D;52748;51.112;5.880;2023-05-20T13:54:11;23.34;50.91
65985;HTU21D;52748;51.112;5.880;2023-05-20T13:56:37;23.34;50.93
65985;HTU21D;52748;51.112;5.880;2023-05-20T13:59:03;23.32;50.95
65985;HTU21D;52748;51.112;5.880;2023-05-20T14:01:32;23.30;50.98
65985;HTU21D;52748;51.112;5.880;2023-05-20T14:03:57;23.30;50.99
65985;HTU21D;52748;51.112;5.880;2023-05-20T14:06:25;23.32;50.92
65985;HTU21D;52748;51.112;5.880;2023-05-20T14:08:53;23.31;50.84
65985;HTU21D;52748;51.112;5.880;2023-05-20T14:11:19;23.30;50.88
65985;HTU21D;52748;51.112;5.880;2023-05-20T14:13:46;23.29;50.91
65985;HTU21D;52748;51.112;5.880;2023-05-20T14:16:12;23.29;50.88
65985;HTU21D;52748;51.112;5.880;2023-05-20T14:18:38;23.28;50.93
65985;HTU21D;52748;51.112;5.880;2023-05-20T14:21:04;23.26;50.98
65985;HTU21D;52748;51.112;5.880;2023-05-20T14:23:29;23.26;51.03
65985;HTU21D;52748;51.112;5.880;2023-05-20T14:25:55;23.25;51.07
65985;HTU21D;52748;51.112;5.880;2023-05-20T14:28:21;23.24;51.09
65985;HTU21D;52748;51.112;5.880;2023-05-20T14:30:47;23.23;51.11
65985;HTU21D;52748;51.112;5.880;2023-05-20T14:33:13;23.23;51.11
65985;HTU21D;52748;51.112;5.880;2023-05-20T14:35:38;23.23;51.13
65985;HTU21D;52748;51.112;5.880;2023-05-20T14:38:04;23.23;50.56
65985;HTU21D;52748;51.112;5.880;2023-05-20T14:40:31;23.22;49.85
65985;HTU21D;52748;51.112;5.880;2023-05-20T14:42:57;23.22;49.49
65985;HTU21D;52748;51.112;5.880;2023-05-20T14:45:22;23.18;49.02
65985;HTU21D;52748;51.112;5.880;2023-05-20T14:47:48;23.16;49.09
65985;HTU21D;52748;51.112;5.880;2023-05-20T14:50:17;23.13;49.31
65985;HTU21D;52748;51.112;5.880;2023-05-20T14:52:43;23.10;49.45
65985;HTU21D;52748;51.112;5.880;2023-05-20T14:55:09;23.07;49.59
65985;HTU21D;52748;51.112;5.880;2023-05-20T14:57:35;23.02;49.76
65985;HTU21D;52748;51.112;5.880;2023-05-20T15:00:01;22.99;49.79
65985;HTU21D;52748;51.112;5.880;2023-05-20T15:02:26;22.96;49.75
65985;HTU21D;52748;51.112;5.880;2023-05-20T15:04:52;22.93;49.63
65985;HTU21D;52748;51.112;5.880;2023-05-20T15:07:26;22.91;49.60
65985;HTU21D;52748;51.112;5.880;2023-05-20T15:09:52;22.92;49.95
65985;HTU21D;52748;51.112;5.880;2023-05-20T15:12:18;22.88;49.85
65985;HTU21D;52748;51.112;5.880;2023-05-20T15:14:44;22.85;49.83
65985;HTU21D;52748;51.112;5.880;2023-05-20T15:17:10;22.85;49.94
65985;HTU21D;52748;51.112;5.880;2023-05-20T15:19:36;22.82;49.77
65985;HTU21D;52748;51.112;5.880;2023-05-20T15:22:04;22.82;49.83
65985;HTU21D;52748;51.112;5.880;2023-05-20T15:24:30;22.82;49.73
65985;HTU21D;52748;51.112;5.880;2023-05-20T15:26:55;22.82;49.62